sensor_id;sensor_type;location;lat;lon;timestamp;pressure;altitude;pressure_sealevel;temperature;humidity
22872;BME280;11603;44.910;8.630;2022-12-29T00:01:54;101379.97;;;10.72;100.00
22872;BME280;11603;44.910;8.630;2022-12-29T00:04:20;101373.66;;;10.73;100.00
22872;BME280;11603;44.910;8.630;2022-12-29T00:06:46;101379.88;;;10.74;100.00
22872;BME280;11603;44.910;8.630;2022-12-29T00:09:14;101367.53;;;10.71;100.00
22872;BME280;11603;44.910;8.630;2022-12-29T00:11:41;101359.03;;;10.80;100.00
22872;BME280;11603;44.910;8.630;2022-12-29T00:14:08;101361.22;;;10.89;100.00
22872;BME280;11603;44.910;8.630;2022-12-29T00:16:53;101361.47;;;10.85;100.00
22872;BME280;11603;44.910;8.630;2022-12-29T00:19:18;101357.91;;;10.84;100.00
22872;BME280;11603;44.910;8.630;2022-12-29T00:22:03;101354.31;;;10.85;100.00
22872;BME280;11603;44.910;8.630;2022-12-29T00:24:47;101350.00;;;10.83;100.00
22872;BME280;11603;44.910;8.630;2022-12-29T00:27:32;101356.97;;;10.85;100.00
22872;BME280;11603;44.910;8.630;2022-12-29T00:30:25;101348.09;;;10.85;100.00
22872;BME280;11603;44.910;8.630;2022-12-29T00:33:14;101352.56;;;10.84;100.00
22872;BME280;11603;44.910;8.630;2022-12-29T00:38:29;101342.34;;;10.75;100.00
22872;BME280;11603;44.910;8.630;2022-12-29T00:41:14;101342.66;;;10.69;100.00
22872;BME280;11603;44.910;8.630;2022-12-29T00:44:00;101335.03;;;10.61;100.00
22872;BME280;11603;44.910;8.630;2022-12-29T00:46:35;101341.94;;;10.66;100.00
22872;BME280;11603;44.910;8.630;2022-12-29T00:49:02;101340.13;;;10.66;100.00
22872;BME280;11603;44.910;8.630;2022-12-29T00:51:47;101337.06;;;10.56;100.00
22872;BME280;11603;44.910;8.630;2022-12-29T00:54:14;101328.06;;;10.57;100.00
22872;BME280;11603;44.910;8.630;2022-12-29T00:56:39;101339.56;;;10.59;100.00
22872;BME280;11603;44.910;8.630;2022-12-29T00:59:07;101331.63;;;10.58;100.00
22872;BME280;11603;44.910;8.630;2022-12-29T01:01:34;101339.16;;;10.50;100.00
22872;BME280;11603;44.910;8.630;2022-12-29T01:03:59;101343.72;;;10.48;100.00
22872;BME280;11603;44.910;8.630;2022-12-29T01:06:25;101351.75;;;10.48;100.00
22872;BME280;11603;44.910;8.630;2022-12-29T01:08:51;101346.25;;;10.51;100.00
22872;BME280;11603;44.910;8.630;2022-12-29T01:11:38;101344.13;;;10.40;100.00
22872;BME280;11603;44.910;8.630;2022-12-29T01:14:05;101349.22;;;10.45;100.00
22872;BME280;11603;44.910;8.630;2022-12-29T01:16:31;101336.88;;;10.42;100.00
22872;BME280;11603;44.910;8.630;2022-12-29T01:18:57;101339.72;;;10.39;100.00
22872;BME280;11603;44.910;8.630;2022-12-29T01:21:22;101334.75;;;10.49;100.00
22872;BME280;11603;44.910;8.630;2022-12-29T01:23:50;101345.16;;;10.55;100.00
22872;BME280;11603;44.910;8.630;2022-12-29T01:26:16;101338.72;;;10.59;100.00
22872;BME280;11603;44.910;8.630;2022-12-29T01:28:42;101341.31;;;10.60;100.00
22872;BME280;11603;44.910;8.630;2022-12-29T01:31:09;101346.38;;;10.67;100.00
22872;BME280;11603;44.910;8.630;2022-12-29T01:33:35;101336.53;;;10.67;100.00
22872;BME280;11603;44.910;8.630;2022-12-29T01:36:02;101336.97;;;10.58;100.00
22872;BME280;11603;44.910;8.630;2022-12-29T01:38:28;101340.34;;;10.44;100.00
22872;BME280;11603;44.910;8.630;2022-12-29T01:40:54;101339.06;;;10.34;100.00
22872;BME280;11603;44.910;8.630;2022-12-29T01:43:19;101340.22;;;10.29;100.00
22872;BME280;11603;44.910;8.630;2022-12-29T01:45:50;101345.06;;;10.20;100.00
22872;BME280;11603;44.910;8.630;2022-12-29T01:48:17;101355.00;;;10.18;100.00
22872;BME280;11603;44.910;8.630;2022-12-29T01:50:50;101349.47;;;10.22;100.00
22872;BME280;11603;44.910;8.630;2022-12-29T01:53:21;101355.41;;;10.28;100.00
22872;BME280;11603;44.910;8.630;2022-12-29T01:55:53;101351.88;;;10.28;100.00
22872;BME280;11603;44.910;8.630;2022-12-29T01:58:23;101354.69;;;10.25;100.00
22872;BME280;11603;44.910;8.630;2022-12-29T02:00:50;101357.75;;;10.15;100.00
22872;BME280;11603;44.910;8.630;2022-12-29T02:03:17;101354.94;;;10.20;100.00
22872;BME280;11603;44.910;8.630;2022-12-29T02:05:49;101350.78;;;10.13;100.00
22872;BME280;11603;44.910;8.630;2022-12-29T02:08:20;101357.91;;;10.12;100.00
22872;BME280;11603;44.910;8.630;2022-12-29T02:10:46;101354.25;;;10.15;100.00
22872;BME280;11603;44.910;8.630;2022-12-29T02:13:15;101354.25;;;10.15;100.00
22872;BME280;11603;44.910;8.630;2022-12-29T02:31:53;101331.00;;;10.17;100.00
22872;BME280;11603;44.910;8.630;2022-12-29T02:37:30;101314.19;;;10.32;100.00
22872;BME280;11603;44.910;8.630;2022-12-29T02:40:07;101320.72;;;10.27;100.00
22872;BME280;11603;44.910;8.630;2022-12-29T02:45:27;101308.72;;;10.35;100.00
22872;BME280;11603;44.910;8.630;2022-12-29T02:51:02;101301.22;;;10.42;100.00
22872;BME280;11603;44.910;8.630;2022-12-29T02:53:28;101303.25;;;10.37;100.00
22872;BME280;11603;44.910;8.630;2022-12-29T02:56:14;101310.59;;;10.33;100.00
22872;BME280;11603;44.910;8.630;2022-12-29T02:58:39;101322.63;;;10.25;100.00
22872;BME280;11603;44.910;8.630;2022-12-29T03:03:58;101316.88;;;9.95;100.00
22872;BME280;11603;44.910;8.630;2022-12-29T03:09:40;101309.31;;;10.04;100.00
22872;BME280;11603;44.910;8.630;2022-12-29T03:14:52;101290.66;;;10.22;100.00
22872;BME280;11603;44.910;8.630;2022-12-29T03:20:08;101298.63;;;10.23;100.00
22872;BME280;11603;44.910;8.630;2022-12-29T03:22:41;101298.44;;;10.26;100.00
22872;BME280;11603;44.910;8.630;2022-12-29T03:25:16;101299.84;;;10.16;100.00
22872;BME280;11603;44.910;8.630;2022-12-29T03:27:53;101291.91;;;10.14;100.00
22872;BME280;11603;44.910;8.630;2022-12-29T03:30:21;101289.97;;;10.18;100.00
22872;BME280;11603;44.910;8.630;2022-12-29T03:32:56;101286.06;;;10.25;100.00
22872;BME280;11603;44.910;8.630;2022-12-29T03:35:29;101282.41;;;10.26;100.00
22872;BME280;11603;44.910;8.630;2022-12-29T03:38:21;101288.66;;;10.08;100.00
22872;BME280;11603;44.910;8.630;2022-12-29T03:40:52;101286.53;;;10.14;100.00
22872;BME280;11603;44.910;8.630;2022-12-29T03:43:22;101285.88;;;10.28;100.00
22872;BME280;11603;44.910;8.630;2022-12-29T03:45:48;101285.31;;;10.22;100.00
22872;BME280;11603;44.910;8.630;2022-12-29T03:48:14;101278.97;;;10.24;100.00
22872;BME280;11603;44.910;8.630;2022-12-29T03:50:40;101283.84;;;10.33;100.00
22872;BME280;11603;44.910;8.630;2022-12-29T03:53:06;101282.31;;;10.46;100.00
22872;BME280;11603;44.910;8.630;2022-12-29T03:55:32;101275.69;;;10.53;100.00
22872;BME280;11603;44.910;8.630;2022-12-29T03:57:57;101283.56;;;10.56;100.00
22872;BME280;11603;44.910;8.630;2022-12-29T04:00:37;101274.66;;;10.56;100.00
22872;BME280;11603;44.910;8.630;2022-12-29T04:03:02;101279.84;;;10.59;100.00
22872;BME280;11603;44.910;8.630;2022-12-29T04:05:28;101281.75;;;10.57;100.00
22872;BME280;11603;44.910;8.630;2022-12-29T04:07:54;101285.91;;;10.45;100.00
22872;BME280;11603;44.910;8.630;2022-12-29T04:10:19;101287.56;;;10.48;100.00
22872;BME280;11603;44.910;8.630;2022-12-29T04:12:52;101294.50;;;10.52;100.00
22872;BME280;11603;44.910;8.630;2022-12-29T04:15:18;101289.81;;;10.38;100.00
22872;BME280;11603;44.910;8.630;2022-12-29T04:17:44;101293.31;;;10.40;100.00
22872;BME280;11603;44.910;8.630;2022-12-29T04:20:09;101294.31;;;10.38;100.00
22872;BME280;11603;44.910;8.630;2022-12-29T04:23:00;101294.53;;;10.33;100.00
22872;BME280;11603;44.910;8.630;2022-12-29T04:25:26;101291.06;;;10.31;100.00
22872;BME280;11603;44.910;8.630;2022-12-29T04:27:52;101285.56;;;10.15;100.00
22872;BME280;11603;44.910;8.630;2022-12-29T04:30:44;101288.00;;;10.22;100.00
22872;BME280;11603;44.910;8.630;2022-12-29T04:33:30;101294.94;;;10.26;100.00
22872;BME280;11603;44.910;8.630;2022-12-29T04:35:57;101287.69;;;10.28;100.00
22872;BME280;11603;44.910;8.630;2022-12-29T04:38:24;101283.16;;;10.30;100.00
22872;BME280;11603;44.910;8.630;2022-12-29T04:40:50;101278.56;;;10.32;100.00
22872;BME280;11603;44.910;8.630;2022-12-29T04:43:18;101285.81;;;10.30;100.00
22872;BME280;11603;44.910;8.630;2022-12-29T04:46:13;101285.91;;;10.09;100.00
22872;BME280;11603;44.910;8.630;2022-12-29T04:48:46;101287.38;;;9.98;100.00
22872;BME280;11603;44.910;8.630;2022-12-29T04:51:30;101283.44;;;10.05;100.00
22872;BME280;11603;44.910;8.630;2022-12-29T04:53:56;101283.88;;;9.96;100.00
22872;BME280;11603;44.910;8.630;2022-12-29T04:56:23;101282.59;;;10.04;100.00
22872;BME280;11603;44.910;8.630;2022-12-29T04:58:48;101277.03;;;10.09;100.00
22872;BME280;11603;44.910;8.630;2022-12-29T05:01:14;101277.72;;;10.12;100.00
22872;BME280;11603;44.910;8.630;2022-12-29T05:03:39;101280.47;;;10.11;100.00
22872;BME280;11603;44.910;8.630;2022-12-29T05:06:05;101281.88;;;10.19;100.00
22872;BME280;11603;44.910;8.630;2022-12-29T05:08:31;101286.34;;;10.19;100.00
22872;BME280;11603;44.910;8.630;2022-12-29T05:10:59;101273.91;;;10.18;100.00
22872;BME280;11603;44.910;8.630;2022-12-29T05:13:25;101278.19;;;10.03;100.00
22872;BME280;11603;44.910;8.630;2022-12-29T05:15:52;101280.00;;;10.03;100.00
22872;BME280;11603;44.910;8.630;2022-12-29T05:18:19;101273.28;;;9.94;100.00
22872;BME280;11603;44.910;8.630;2022-12-29T05:20:45;101280.44;;;9.94;100.00
22872;BME280;11603;44.910;8.630;2022-12-29T05:23:12;101281.72;;;9.85;100.00
22872;BME280;11603;44.910;8.630;2022-12-29T05:25:38;101286.31;;;9.83;100.00
22872;BME280;11603;44.910;8.630;2022-12-29T05:28:27;101287.38;;;9.79;100.00
22872;BME280;11603;44.910;8.630;2022-12-29T05:31:05;101287.66;;;9.92;100.00
22872;BME280;11603;44.910;8.630;2022-12-29T05:33:31;101299.63;;;10.02;100.00
22872;BME280;11603;44.910;8.630;2022-12-29T05:35:56;101286.84;;;10.08;100.00
22872;BME280;11603;44.910;8.630;2022-12-29T05:38:23;101290.97;;;9.97;100.00
22872;BME280;11603;44.910;8.630;2022-12-29T05:40:48;101288.59;;;9.91;100.00
22872;BME280;11603;44.910;8.630;2022-12-29T05:43:30;101293.69;;;9.78;100.00
22872;BME280;11603;44.910;8.630;2022-12-29T05:46:31;101282.13;;;9.77;100.00
22872;BME280;11603;44.910;8.630;2022-12-29T05:49:13;101287.72;;;9.90;100.00
22872;BME280;11603;44.910;8.630;2022-12-29T05:51:57;101290.09;;;9.96;100.00
22872;BME280;11603;44.910;8.630;2022-12-29T05:54:23;101292.19;;;9.90;100.00
22872;BME280;11603;44.910;8.630;2022-12-29T05:56:49;101288.59;;;9.91;100.00
22872;BME280;11603;44.910;8.630;2022-12-29T05:59:15;101289.63;;;9.88;100.00
22872;BME280;11603;44.910;8.630;2022-12-29T06:01:41;101294.38;;;9.82;100.00
22872;BME280;11603;44.910;8.630;2022-12-29T06:04:07;101297.28;;;9.77;100.00
22872;BME280;11603;44.910;8.630;2022-12-29T06:06:32;101301.19;;;9.89;100.00
22872;BME280;11603;44.910;8.630;2022-12-29T06:08:58;101288.75;;;9.88;100.00
22872;BME280;11603;44.910;8.630;2022-12-29T06:11:23;101283.25;;;9.91;100.00
22872;BME280;11603;44.910;8.630;2022-12-29T06:13:53;101282.03;;;9.98;100.00
22872;BME280;11603;44.910;8.630;2022-12-29T06:16:19;101281.09;;;9.99;100.00
22872;BME280;11603;44.910;8.630;2022-12-29T06:18:45;101293.94;;;9.91;100.00
22872;BME280;11603;44.910;8.630;2022-12-29T06:21:11;101297.94;;;9.82;100.00
22872;BME280;11603;44.910;8.630;2022-12-29T06:23:37;101286.22;;;9.85;100.00
22872;BME280;11603;44.910;8.630;2022-12-29T06:26:03;101284.16;;;9.72;100.00
22872;BME280;11603;44.910;8.630;2022-12-29T06:28:29;101284.69;;;9.79;100.00
22872;BME280;11603;44.910;8.630;2022-12-29T06:30:54;101286.53;;;9.78;100.00
22872;BME280;11603;44.910;8.630;2022-12-29T06:33:20;101281.31;;;9.75;100.00
22872;BME280;11603;44.910;8.630;2022-12-29T06:35:46;101277.56;;;9.61;100.00
22872;BME280;11603;44.910;8.630;2022-12-29T06:38:12;101280.88;;;9.66;100.00
22872;BME280;11603;44.910;8.630;2022-12-29T06:40:37;101280.03;;;9.65;100.00
22872;BME280;11603;44.910;8.630;2022-12-29T06:43:18;101298.94;;;9.61;100.00
22872;BME280;11603;44.910;8.630;2022-12-29T06:45:58;101292.22;;;9.71;100.00
22872;BME280;11603;44.910;8.630;2022-12-29T06:48:24;101288.47;;;9.75;100.00
22872;BME280;11603;44.910;8.630;2022-12-29T06:50:49;101292.06;;;9.74;100.00
22872;BME280;11603;44.910;8.630;2022-12-29T06:53:15;101302.09;;;9.69;100.00
22872;BME280;11603;44.910;8.630;2022-12-29T06:55:41;101293.03;;;9.73;100.00
22872;BME280;11603;44.910;8.630;2022-12-29T06:58:07;101296.25;;;9.79;100.00
22872;BME280;11603;44.910;8.630;2022-12-29T07:00:32;101301.47;;;9.83;100.00
22872;BME280;11603;44.910;8.630;2022-12-29T07:02:58;101305.63;;;9.69;100.00
22872;BME280;11603;44.910;8.630;2022-12-29T07:05:24;101308.69;;;9.62;100.00
22872;BME280;11603;44.910;8.630;2022-12-29T07:07:50;101306.28;;;9.56;100.00
22872;BME280;11603;44.910;8.630;2022-12-29T07:10:17;101316.13;;;9.55;100.00
22872;BME280;11603;44.910;8.630;2022-12-29T07:12:42;101317.09;;;9.53;100.00
22872;BME280;11603;44.910;8.630;2022-12-29T07:15:08;101307.81;;;9.61;100.00
22872;BME280;11603;44.910;8.630;2022-12-29T07:17:34;101313.16;;;9.61;100.00
22872;BME280;11603;44.910;8.630;2022-12-29T07:19:59;101320.59;;;9.73;100.00
22872;BME280;11603;44.910;8.630;2022-12-29T07:22:25;101315.47;;;9.69;100.00
22872;BME280;11603;44.910;8.630;2022-12-29T07:24:50;101317.56;;;9.62;100.00
22872;BME280;11603;44.910;8.630;2022-12-29T07:27:16;101315.91;;;9.60;100.00
22872;BME280;11603;44.910;8.630;2022-12-29T07:29:41;101326.00;;;9.53;100.00
22872;BME280;11603;44.910;8.630;2022-12-29T07:32:06;101318.63;;;9.58;100.00
22872;BME280;11603;44.910;8.630;2022-12-29T07:34:32;101329.13;;;9.63;100.00
22872;BME280;11603;44.910;8.630;2022-12-29T07:36:58;101330.94;;;9.62;100.00
22872;BME280;11603;44.910;8.630;2022-12-29T07:39:23;101324.78;;;9.60;100.00
22872;BME280;11603;44.910;8.630;2022-12-29T07:41:48;101329.41;;;9.57;100.00
22872;BME280;11603;44.910;8.630;2022-12-29T07:44:19;101333.50;;;9.45;100.00
22872;BME280;11603;44.910;8.630;2022-12-29T07:46:50;101344.59;;;9.36;100.00
22872;BME280;11603;44.910;8.630;2022-12-29T07:49:15;101336.13;;;9.26;100.00
22872;BME280;11603;44.910;8.630;2022-12-29T07:51:41;101339.66;;;9.27;100.00
22872;BME280;11603;44.910;8.630;2022-12-29T07:54:06;101339.47;;;9.31;100.00
22872;BME280;11603;44.910;8.630;2022-12-29T07:56:32;101340.41;;;9.30;100.00
22872;BME280;11603;44.910;8.630;2022-12-29T07:58:57;101348.06;;;9.38;100.00
22872;BME280;11603;44.910;8.630;2022-12-29T08:01:22;101339.72;;;9.46;100.00
22872;BME280;11603;44.910;8.630;2022-12-29T08:03:48;101337.91;;;9.46;100.00
22872;BME280;11603;44.910;8.630;2022-12-29T08:06:14;101340.09;;;9.57;100.00
22872;BME280;11603;44.910;8.630;2022-12-29T08:08:40;101338.13;;;9.60;100.00
22872;BME280;11603;44.910;8.630;2022-12-29T08:11:05;101339.91;;;9.41;100.00
22872;BME280;11603;44.910;8.630;2022-12-29T08:13:31;101349.53;;;9.45;100.00
22872;BME280;11603;44.910;8.630;2022-12-29T08:15:59;101344.66;;;9.34;100.00
22872;BME280;11603;44.910;8.630;2022-12-29T08:18:25;101342.06;;;9.33;100.00
22872;BME280;11603;44.910;8.630;2022-12-29T08:20:50;101343.06;;;9.30;100.00
22872;BME280;11603;44.910;8.630;2022-12-29T08:23:16;101347.81;;;9.24;100.00
22872;BME280;11603;44.910;8.630;2022-12-29T08:25:41;101341.00;;;9.17;100.00
22872;BME280;11603;44.910;8.630;2022-12-29T08:28:07;101341.00;;;9.17;100.00
22872;BME280;11603;44.910;8.630;2022-12-29T08:30:32;101343.56;;;9.20;100.00
22872;BME280;11603;44.910;8.630;2022-12-29T08:32:58;101339.88;;;9.22;100.00
22872;BME280;11603;44.910;8.630;2022-12-29T08:35:23;101328.19;;;9.25;100.00
22872;BME280;11603;44.910;8.630;2022-12-29T08:37:49;101337.72;;;9.30;100.00
22872;BME280;11603;44.910;8.630;2022-12-29T08:40:14;101342.00;;;9.34;100.00
22872;BME280;11603;44.910;8.630;2022-12-29T08:42:40;101336.16;;;9.45;100.00
22872;BME280;11603;44.910;8.630;2022-12-29T08:45:06;101336.59;;;9.55;100.00
22872;BME280;11603;44.910;8.630;2022-12-29T08:47:32;101341.72;;;9.41;100.00
22872;BME280;11603;44.910;8.630;2022-12-29T08:49:57;101345.91;;;9.46;100.00
22872;BME280;11603;44.910;8.630;2022-12-29T08:52:26;101343.03;;;9.51;100.00
22872;BME280;11603;44.910;8.630;2022-12-29T08:54:57;101349.84;;;9.38;100.00
22872;BME280;11603;44.910;8.630;2022-12-29T08:57:23;101345.31;;;9.40;100.00
22872;BME280;11603;44.910;8.630;2022-12-29T09:00:03;101358.69;;;9.58;100.00
22872;BME280;11603;44.910;8.630;2022-12-29T09:02:29;101357.47;;;9.47;100.00
22872;BME280;11603;44.910;8.630;2022-12-29T09:04:55;101368.63;;;9.36;100.00
22872;BME280;11603;44.910;8.630;2022-12-29T09:07:22;101362.31;;;9.37;100.00
22872;BME280;11603;44.910;8.630;2022-12-29T09:09:48;101364.66;;;9.45;100.00
22872;BME280;11603;44.910;8.630;2022-12-29T09:12:13;101357.81;;;9.39;100.00
22872;BME280;11603;44.910;8.630;2022-12-29T09:14:39;101363.56;;;9.30;100.00
22872;BME280;11603;44.910;8.630;2022-12-29T09:17:04;101363.34;;;9.34;100.00
22872;BME280;11603;44.910;8.630;2022-12-29T09:19:48;101359.00;;;9.32;100.00
22872;BME280;11603;44.910;8.630;2022-12-29T09:22:14;101354.13;;;9.21;100.00
22872;BME280;11603;44.910;8.630;2022-12-29T09:24:39;101359.09;;;9.10;100.00
22872;BME280;11603;44.910;8.630;2022-12-29T09:27:04;101359.41;;;9.23;100.00
22872;BME280;11603;44.910;8.630;2022-12-29T09:29:30;101351.84;;;9.32;100.00
22872;BME280;11603;44.910;8.630;2022-12-29T09:31:55;101363.59;;;9.49;100.00
22872;BME280;11603;44.910;8.630;2022-12-29T09:34:21;101371.66;;;9.67;100.00
22872;BME280;11603;44.910;8.630;2022-12-29T09:36:48;101365.66;;;9.81;100.00
22872;BME280;11603;44.910;8.630;2022-12-29T09:39:13;101358.84;;;9.74;100.00
22872;BME280;11603;44.910;8.630;2022-12-29T09:41:45;101352.63;;;9.73;100.00
22872;BME280;11603;44.910;8.630;2022-12-29T09:46:49;101348.75;;;9.81;100.00
22872;BME280;11603;44.910;8.630;2022-12-29T09:49:25;101353.47;;;9.94;100.00
22872;BME280;11603;44.910;8.630;2022-12-29T09:51:56;101347.44;;;9.89;100.00
22872;BME280;11603;44.910;8.630;2022-12-29T09:54:31;101349.63;;;9.81;100.00
22872;BME280;11603;44.910;8.630;2022-12-29T09:56:58;101338.44;;;9.92;100.00
22872;BME280;11603;44.910;8.630;2022-12-29T09:59:39;101343.63;;;9.95;100.00
22872;BME280;11603;44.910;8.630;2022-12-29T10:02:20;101339.78;;;10.00;100.00
22872;BME280;11603;44.910;8.630;2022-12-29T10:04:48;101329.25;;;10.16;100.00
22872;BME280;11603;44.910;8.630;2022-12-29T10:07:44;101332.28;;;10.27;100.00
22872;BME280;11603;44.910;8.630;2022-12-29T10:10:33;101333.28;;;10.06;100.00
22872;BME280;11603;44.910;8.630;2022-12-29T10:15:54;101342.34;;;10.03;100.00
22872;BME280;11603;44.910;8.630;2022-12-29T10:21:22;101324.34;;;10.26;100.00
22872;BME280;11603;44.910;8.630;2022-12-29T10:23:52;101331.81;;;10.19;100.00
22872;BME280;11603;44.910;8.630;2022-12-29T10:26:20;101326.34;;;10.20;100.00
22872;BME280;11603;44.910;8.630;2022-12-29T10:29:02;101326.78;;;10.11;100.00
22872;BME280;11603;44.910;8.630;2022-12-29T10:31:39;101342.22;;;10.05;100.00
22872;BME280;11603;44.910;8.630;2022-12-29T10:36:43;101327.75;;;9.92;100.00
22872;BME280;11603;44.910;8.630;2022-12-29T10:40:00;101328.31;;;9.79;100.00
22872;BME280;11603;44.910;8.630;2022-12-29T10:42:28;101321.75;;;9.87;100.00
22872;BME280;11603;44.910;8.630;2022-12-29T10:44:54;101319.50;;;9.96;100.00
22872;BME280;11603;44.910;8.630;2022-12-29T10:47:27;101324.84;;;9.96;100.00
22872;BME280;11603;44.910;8.630;2022-12-29T10:49:54;101319.50;;;9.96;100.00
22872;BME280;11603;44.910;8.630;2022-12-29T10:52:21;101321.88;;;10.02;100.00
22872;BME280;11603;44.910;8.630;2022-12-29T10:55:03;101313.63;;;10.07;100.00
22872;BME280;11603;44.910;8.630;2022-12-29T10:57:34;101314.66;;;10.04;100.00
22872;BME280;11603;44.910;8.630;2022-12-29T11:00:01;101306.19;;;9.95;100.00
22872;BME280;11603;44.910;8.630;2022-12-29T11:05:31;101297.38;;;10.11;100.00
22872;BME280;11603;44.910;8.630;2022-12-29T11:08:02;101286.06;;;10.25;100.00
22872;BME280;11603;44.910;8.630;2022-12-29T11:10:39;101285.88;;;10.28;100.00
22872;BME280;11603;44.910;8.630;2022-12-29T11:13:18;101283.91;;;10.32;100.00
22872;BME280;11603;44.910;8.630;2022-12-29T11:15:46;101280.88;;;10.39;100.00
22872;BME280;11603;44.910;8.630;2022-12-29T11:21:00;101278.53;;;10.68;100.00
22872;BME280;11603;44.910;8.630;2022-12-29T11:28:32;101271.09;;;10.90;100.00
22872;BME280;11603;44.910;8.630;2022-12-29T11:31:01;101266.59;;;10.90;100.00
22872;BME280;11603;44.910;8.630;2022-12-29T11:33:28;101271.66;;;10.96;100.00
22872;BME280;11603;44.910;8.630;2022-12-29T11:36:02;101272.88;;;11.07;100.00
22872;BME280;11603;44.910;8.630;2022-12-29T11:38:34;101273.56;;;11.10;100.00
22872;BME280;11603;44.910;8.630;2022-12-29T11:41:02;101271.88;;;11.09;100.00
22872;BME280;11603;44.910;8.630;2022-12-29T11:43:32;101273.44;;;11.13;100.00
22872;BME280;11603;44.910;8.630;2022-12-29T11:45:59;101273.78;;;11.23;100.00
22872;BME280;11603;44.910;8.630;2022-12-29T11:48:28;101271.03;;;11.24;100.00
22872;BME280;11603;44.910;8.630;2022-12-29T11:50:56;101259.28;;;11.27;100.00
22872;BME280;11603;44.910;8.630;2022-12-29T11:53:42;101249.28;;;11.30;100.00
22872;BME280;11603;44.910;8.630;2022-12-29T11:56:12;101243.94;;;11.30;100.00
22872;BME280;11603;44.910;8.630;2022-12-29T11:58:40;101232.00;;;11.36;100.00
22872;BME280;11603;44.910;8.630;2022-12-29T12:01:34;101238.06;;;11.39;100.00
22872;BME280;11603;44.910;8.630;2022-12-29T12:04:06;101241.25;;;11.30;100.00
22872;BME280;11603;44.910;8.630;2022-12-29T12:06:37;101245.63;;;11.31;100.00
22872;BME280;11603;44.910;8.630;2022-12-29T12:09:10;101241.94;;;11.34;100.00
22872;BME280;11603;44.910;8.630;2022-12-29T12:11:40;101232.16;;;11.33;100.00
22872;BME280;11603;44.910;8.630;2022-12-29T12:15:01;101232.00;;;11.36;100.00
22872;BME280;11603;44.910;8.630;2022-12-29T12:17:43;101228.88;;;11.28;100.00
22872;BME280;11603;44.910;8.630;2022-12-29T12:20:32;101224.47;;;11.27;100.00
22872;BME280;11603;44.910;8.630;2022-12-29T12:28:42;101218.53;;;11.37;100.00
22872;BME280;11603;44.910;8.630;2022-12-29T12:31:46;101221.06;;;11.40;100.00
22872;BME280;11603;44.910;8.630;2022-12-29T12:34:24;101214.81;;;11.40;100.00
22872;BME280;11603;44.910;8.630;2022-12-29T12:39:41;101209.97;;;11.46;100.00
22872;BME280;11603;44.910;8.630;2022-12-29T12:51:12;101185.69;;;11.50;100.00
22872;BME280;11603;44.910;8.630;2022-12-29T12:53:53;101182.84;;;11.53;100.00
22872;BME280;11603;44.910;8.630;2022-12-29T12:59:06;101177.72;;;11.64;100.00
22872;BME280;11603;44.910;8.630;2022-12-29T13:01:52;101168.16;;;11.60;100.00
22872;BME280;11603;44.910;8.630;2022-12-29T13:12:52;101165.47;;;11.44;100.00
22872;BME280;11603;44.910;8.630;2022-12-29T13:20:57;101155.09;;;11.54;100.00
22872;BME280;11603;44.910;8.630;2022-12-29T13:23:36;101166.41;;;11.43;100.00
22872;BME280;11603;44.910;8.630;2022-12-29T13:26:14;101162.13;;;11.40;100.00
22872;BME280;11603;44.910;8.630;2022-12-29T13:37:09;101138.97;;;11.39;100.00
22872;BME280;11603;44.910;8.630;2022-12-29T13:39:49;101140.69;;;11.40;100.00
22872;BME280;11603;44.910;8.630;2022-12-29T13:42:19;101133.41;;;11.42;100.00
22872;BME280;11603;44.910;8.630;2022-12-29T13:44:53;101138.78;;;11.42;100.00
22872;BME280;11603;44.910;8.630;2022-12-29T13:47:27;101132.66;;;11.40;100.00
22872;BME280;11603;44.910;8.630;2022-12-29T13:49:56;101137.22;;;11.38;100.00
22872;BME280;11603;44.910;8.630;2022-12-29T13:55:45;101129.19;;;11.23;100.00
22872;BME280;11603;44.910;8.630;2022-12-29T14:03:53;101117.94;;;11.16;100.00
22872;BME280;11603;44.910;8.630;2022-12-29T14:06:26;101109.56;;;11.22;100.00
22872;BME280;11603;44.910;8.630;2022-12-29T14:08:56;101104.16;;;11.24;100.00
22872;BME280;11603;44.910;8.630;2022-12-29T14:11:28;101102.59;;;11.20;100.00
22872;BME280;11603;44.910;8.630;2022-12-29T14:13:54;101112.25;;;11.22;100.00
22872;BME280;11603;44.910;8.630;2022-12-29T14:16:38;101108.44;;;11.26;100.00
22872;BME280;11603;44.910;8.630;2022-12-29T14:19:16;101107.69;;;11.24;100.00
22872;BME280;11603;44.910;8.630;2022-12-29T14:21:52;101105.50;;;11.31;100.00
22872;BME280;11603;44.910;8.630;2022-12-29T14:34:48;101102.16;;;11.27;100.00
22872;BME280;11603;44.910;8.630;2022-12-29T14:37:28;101099.66;;;11.24;100.00
22872;BME280;11603;44.910;8.630;2022-12-29T14:42:47;101099.81;;;11.21;100.00
22872;BME280;11603;44.910;8.630;2022-12-29T14:47:41;101109.56;;;11.22;100.00
22872;BME280;11603;44.910;8.630;2022-12-29T14:52:45;101107.84;;;11.21;100.00
22872;BME280;11603;44.910;8.630;2022-12-29T14:57:51;101108.91;;;11.19;100.00
22872;BME280;11603;44.910;8.630;2022-12-29T15:00:32;101103.69;;;11.16;100.00
22872;BME280;11603;44.910;8.630;2022-12-29T15:03:07;101098.19;;;11.19;100.00
22872;BME280;11603;44.910;8.630;2022-12-29T15:05:44;101099.81;;;11.21;100.00
22872;BME280;11603;44.910;8.630;2022-12-29T15:08:12;101103.34;;;11.22;100.00
22872;BME280;11603;44.910;8.630;2022-12-29T15:10:57;101114.50;;;11.14;100.00
22872;BME280;11603;44.910;8.630;2022-12-29T15:13:36;101103.63;;;11.17;100.00
22872;BME280;11603;44.910;8.630;2022-12-29T15:16:03;101104.75;;;11.13;100.00